createdAt,value
2022-12-01T00:01:36.881Z,38.30
2022-12-01T00:04:05.636Z,35.20
2022-12-01T00:06:34.000Z,39.80
2022-12-01T00:09:20.935Z,36.90
2022-12-01T00:11:49.508Z,34.70
2022-12-01T00:14:18.015Z,34.60
2022-12-01T00:16:46.578Z,33.90
2022-12-01T00:19:15.361Z,39.20
2022-12-01T00:21:43.595Z,32.20
2022-12-01T00:24:12.508Z,35.30
2022-12-01T00:26:41.149Z,37.10
2022-12-01T00:29:09.720Z,34.50
2022-12-01T00:31:38.159Z,37.90
2022-12-01T00:34:11.248Z,34.50
2022-12-01T00:36:39.904Z,28.80
2022-12-01T00:39:09.738Z,32.50
2022-12-01T00:41:37.980Z,29.90
2022-12-01T00:44:06.492Z,31.20
2022-12-01T00:46:35.305Z,33.00
2022-12-01T00:49:04.328Z,30.40
2022-12-01T00:51:32.673Z,28.00
2022-12-01T00:54:01.251Z,26.50
2022-12-01T00:56:29.439Z,26.40
2022-12-01T00:58:57.732Z,26.20
2022-12-01T01:01:26.539Z,27.20
2022-12-01T01:03:54.843Z,26.30
2022-12-01T01:06:23.147Z,24.80
2022-12-01T01:08:51.405Z,24.50
2022-12-01T01:11:19.648Z,23.10
2022-12-01T01:13:48.280Z,23.30
2022-12-01T01:16:19.640Z,22.40
2022-12-01T01:18:48.605Z,22.20
2022-12-01T01:21:19.767Z,24.00
2022-12-01T01:23:50.017Z,24.50
2022-12-01T01:26:25.657Z,21.60
2022-12-01T01:28:57.179Z,24.10
2022-12-01T01:31:27.509Z,22.00
2022-12-01T01:33:57.077Z,23.20
2022-12-01T01:36:26.084Z,24.50
2022-12-01T01:38:55.534Z,26.10
2022-12-01T01:41:24.825Z,23.70
2022-12-01T01:43:59.363Z,25.50
2022-12-01T01:46:30.094Z,22.60
2022-12-01T01:49:09.997Z,23.00
2022-12-01T01:51:52.938Z,22.80
2022-12-01T01:54:26.863Z,25.40
2022-12-01T01:56:57.541Z,22.90
2022-12-01T01:59:30.491Z,24.70
2022-12-01T02:02:08.887Z,24.80
2022-12-01T02:04:40.666Z,23.90
2022-12-01T02:07:11.721Z,24.60
2022-12-01T02:09:40.041Z,23.10
2022-12-01T02:12:17.340Z,25.50
2022-12-01T02:15:23.679Z,24.40
2022-12-01T02:18:01.404Z,24.40
2022-12-01T02:21:04.460Z,20.70
2022-12-01T02:26:43.961Z,24.80
2022-12-01T02:29:23.439Z,22.80
2022-12-01T02:32:10.024Z,25.40
2022-12-01T02:34:46.895Z,26.50
2022-12-01T02:37:31.552Z,25.30
2022-12-01T02:40:39.694Z,20.50
2022-12-01T02:43:32.225Z,24.30
2022-12-01T02:46:09.559Z,26.00
2022-12-01T02:48:41.261Z,20.20
2022-12-01T02:51:17.300Z,20.20
2022-12-01T02:53:45.973Z,21.90
2022-12-01T02:56:16.145Z,21.70
2022-12-01T02:58:44.519Z,19.40
2022-12-01T03:01:53.600Z,21.20
2022-12-01T03:04:46.973Z,22.10
2022-12-01T03:07:37.111Z,20.90
2022-12-01T03:10:37.981Z,20.70
2022-12-01T03:13:23.010Z,19.20
2022-12-01T03:16:13.995Z,17.40
2022-12-01T03:18:56.573Z,15.90
2022-12-01T03:24:16.112Z,22.60
2022-12-01T03:26:52.145Z,19.10
2022-12-01T03:29:45.024Z,20.20
2022-12-01T03:32:25.074Z,18.20
2022-12-01T03:34:59.276Z,17.80
2022-12-01T03:37:36.216Z,18.40
2022-12-01T03:40:09.023Z,20.10
2022-12-01T03:42:52.941Z,20.70
2022-12-01T03:45:31.605Z,20.60
2022-12-01T03:48:00.584Z,19.30
2022-12-01T03:50:44.915Z,21.20
2022-12-01T03:53:26.003Z,19.30
2022-12-01T03:56:03.590Z,17.40
2022-12-01T03:58:41.926Z,18.80
2022-12-01T04:01:10.369Z,17.00
2022-12-01T04:03:38.903Z,17.60
2022-12-01T04:06:08.119Z,17.40
2022-12-01T04:08:37.681Z,17.50
2022-12-01T04:11:32.137Z,17.90
2022-12-01T04:14:01.380Z,16.60
2022-12-01T04:16:29.625Z,16.20
2022-12-01T04:18:57.885Z,17.90
2022-12-01T04:21:26.635Z,16.70
2022-12-01T04:24:01.153Z,15.30
2022-12-01T04:26:32.477Z,16.80
2022-12-01T04:29:02.581Z,17.60
2022-12-01T04:31:31.731Z,18.40
2022-12-01T04:34:00.251Z,16.30
2022-12-01T04:36:32.079Z,17.00
2022-12-01T04:39:01.345Z,18.00
2022-12-01T04:41:29.545Z,15.40
2022-12-01T04:43:57.899Z,15.60
2022-12-01T04:46:26.704Z,16.00
2022-12-01T04:48:54.932Z,15.70
2022-12-01T04:51:23.603Z,15.10
2022-12-01T04:53:52.205Z,14.00
2022-12-01T04:56:20.449Z,14.90
2022-12-01T04:58:49.174Z,15.40
2022-12-01T05:01:18.791Z,14.10
2022-12-01T05:03:51.801Z,15.80
2022-12-01T05:06:23.935Z,14.50
2022-12-01T05:08:56.422Z,13.80
2022-12-01T05:11:26.261Z,13.90
2022-12-01T05:13:54.467Z,15.00
2022-12-01T05:16:25.823Z,14.80
2022-12-01T05:19:18.608Z,15.30
2022-12-01T05:21:48.917Z,13.90
2022-12-01T05:24:19.029Z,15.80
2022-12-01T05:26:47.793Z,15.00
2022-12-01T05:29:16.096Z,15.00
2022-12-01T05:31:46.589Z,15.70
2022-12-01T05:34:15.052Z,14.40
2022-12-01T05:36:43.590Z,15.10
2022-12-01T05:39:12.100Z,14.20
2022-12-01T05:41:40.426Z,13.20
2022-12-01T05:44:08.909Z,13.00
2022-12-01T05:46:37.378Z,15.90
2022-12-01T05:49:06.465Z,14.80
2022-12-01T05:51:34.809Z,15.90
2022-12-01T05:54:03.808Z,16.80
2022-12-01T05:56:32.158Z,15.00
2022-12-01T05:59:00.861Z,14.10
2022-12-01T06:01:29.508Z,14.90
2022-12-01T06:03:57.751Z,16.50
2022-12-01T06:06:26.391Z,16.80
2022-12-01T06:08:55.138Z,16.70
2022-12-01T06:11:23.322Z,17.20
2022-12-01T06:13:51.822Z,19.40
2022-12-01T06:16:20.249Z,16.40
2022-12-01T06:18:48.620Z,17.60
2022-12-01T06:21:17.571Z,17.50
2022-12-01T06:23:46.014Z,18.30
2022-12-01T06:26:14.256Z,17.70
2022-12-01T06:28:42.720Z,16.50
2022-12-01T06:31:11.045Z,18.80
2022-12-01T06:33:39.347Z,18.10
2022-12-01T06:36:08.567Z,19.20
2022-12-01T06:38:37.465Z,16.70
2022-12-01T06:41:05.929Z,17.10
2022-12-01T06:43:38.200Z,22.00
2022-12-01T06:46:06.829Z,16.90
2022-12-01T06:48:35.225Z,18.10
2022-12-01T06:51:03.960Z,17.60
2022-12-01T06:53:32.619Z,18.40
2022-12-01T06:56:02.633Z,19.20
2022-12-01T06:58:31.367Z,18.90
2022-12-01T07:01:00.452Z,18.80
2022-12-01T07:03:28.864Z,19.90
2022-12-01T07:06:01.847Z,19.20
2022-12-01T07:08:32.286Z,19.20
2022-12-01T07:11:02.680Z,18.50
2022-12-01T07:13:33.765Z,17.30
2022-12-01T07:16:03.547Z,17.60
2022-12-01T07:18:33.606Z,18.70
2022-12-01T07:21:04.376Z,15.90
2022-12-01T07:23:33.349Z,16.10
2022-12-01T07:26:13.888Z,15.90
2022-12-01T07:28:43.256Z,16.10
2022-12-01T07:31:12.886Z,16.30
2022-12-01T07:33:41.640Z,18.10
2022-12-01T07:36:12.014Z,16.90
2022-12-01T07:38:41.562Z,17.50
2022-12-01T07:41:15.983Z,17.20
2022-12-01T07:43:44.978Z,16.90
2022-12-01T07:46:23.681Z,16.80
2022-12-01T07:48:54.107Z,15.70
2022-12-01T07:51:23.985Z,17.00
2022-12-01T07:53:53.418Z,18.10
2022-12-01T07:56:23.222Z,15.20
2022-12-01T07:58:51.807Z,15.60
2022-12-01T08:01:22.780Z,20.40
2022-12-01T08:03:54.510Z,17.70
2022-12-01T08:06:24.157Z,14.50
2022-12-01T08:08:53.022Z,14.60
2022-12-01T08:11:24.261Z,15.20
2022-12-01T08:13:53.704Z,14.60
2022-12-01T08:16:24.326Z,14.40
2022-12-01T08:18:53.275Z,14.90
2022-12-01T08:21:23.515Z,14.50
2022-12-01T08:23:57.211Z,14.00
2022-12-01T08:26:27.426Z,14.50
2022-12-01T08:28:56.459Z,15.10
2022-12-01T08:31:28.359Z,15.90
2022-12-01T08:33:57.200Z,14.70
2022-12-01T08:36:25.732Z,14.00
2022-12-01T08:38:56.135Z,13.80
2022-12-01T08:41:24.884Z,12.50
2022-12-01T08:43:58.473Z,12.80
2022-12-01T08:46:29.370Z,13.00
2022-12-01T08:48:58.191Z,16.30
2022-12-01T08:51:27.116Z,12.60
2022-12-01T08:53:57.991Z,11.70
2022-12-01T08:56:41.703Z,15.50
2022-12-01T08:59:10.501Z,16.50
2022-12-01T09:01:52.220Z,11.90
2022-12-01T09:04:24.376Z,11.10
2022-12-01T09:06:54.564Z,13.60
2022-12-01T09:09:28.787Z,12.90
2022-12-01T09:11:57.647Z,13.00
2022-12-01T09:14:26.121Z,11.40
2022-12-01T09:16:54.712Z,11.70
2022-12-01T09:19:24.992Z,12.40
2022-12-01T09:21:53.660Z,10.10
2022-12-01T09:24:22.689Z,12.20
2022-12-01T09:26:54.429Z,8.70
2022-12-01T09:29:23.276Z,8.60
2022-12-01T09:31:51.972Z,9.90
2022-12-01T09:34:20.676Z,11.00
2022-12-01T09:36:49.534Z,10.80
2022-12-01T09:39:20.252Z,10.20
2022-12-01T09:42:08.488Z,9.90
2022-12-01T09:44:41.319Z,10.10
2022-12-01T09:47:33.899Z,11.60
2022-12-01T09:50:07.363Z,10.90
2022-12-01T09:52:43.588Z,10.60
2022-12-01T09:55:16.384Z,11.40
2022-12-01T09:57:48.507Z,11.30
2022-12-01T10:03:10.980Z,11.80
2022-12-01T10:06:26.132Z,10.00
2022-12-01T10:08:52.879Z,9.40
2022-12-01T10:11:29.983Z,8.90
2022-12-01T10:14:00.084Z,9.50
2022-12-01T10:16:40.972Z,9.70
2022-12-01T10:19:18.596Z,13.00
2022-12-01T10:22:02.544Z,9.70
2022-12-01T10:24:58.828Z,11.80
2022-12-01T10:27:47.982Z,10.70
2022-12-01T10:30:22.650Z,10.30
2022-12-01T10:33:13.449Z,11.00
2022-12-01T10:35:42.056Z,9.10
2022-12-01T10:38:31.926Z,10.70
2022-12-01T10:41:02.377Z,10.10
2022-12-01T10:43:45.863Z,10.00
2022-12-01T10:46:46.096Z,10.90
2022-12-01T10:49:16.607Z,10.40
2022-12-01T10:51:53.272Z,9.50
2022-12-01T10:54:23.541Z,10.40
2022-12-01T10:56:57.620Z,10.50
2022-12-01T10:59:55.755Z,10.50
2022-12-01T11:02:27.522Z,10.60
2022-12-01T11:04:58.574Z,10.00
2022-12-01T11:07:42.808Z,11.20
2022-12-01T11:10:17.352Z,15.50
2022-12-01T11:12:54.107Z,13.10
2022-12-01T11:15:28.230Z,12.70
2022-12-01T11:18:05.693Z,11.50
2022-12-01T11:20:40.251Z,10.90
2022-12-01T11:23:26.961Z,13.50
2022-12-01T11:26:26.781Z,11.10
2022-12-01T11:28:59.400Z,12.10
2022-12-01T11:31:43.513Z,11.10
2022-12-01T11:34:26.101Z,13.10
2022-12-01T11:37:17.015Z,12.20
2022-12-01T11:39:48.537Z,13.00
2022-12-01T11:42:27.139Z,13.60
2022-12-01T11:45:06.087Z,13.30
2022-12-01T11:47:34.948Z,12.90
2022-12-01T11:50:25.415Z,14.50
2022-12-01T11:52:54.075Z,12.80
2022-12-01T11:55:25.123Z,13.50
2022-12-01T11:57:56.800Z,12.30
2022-12-01T12:00:29.104Z,13.90
2022-12-01T12:03:21.589Z,15.10
2022-12-01T12:09:03.741Z,12.70
2022-12-01T12:11:52.354Z,13.10
2022-12-01T12:14:55.466Z,13.30
2022-12-01T12:17:52.401Z,13.80
2022-12-01T12:20:41.935Z,10.70
2022-12-01T12:23:28.177Z,10.50
2022-12-01T12:26:25.040Z,14.40
2022-12-01T12:29:47.454Z,9.00
2022-12-01T12:32:50.379Z,8.30
2022-12-01T12:35:54.237Z,9.20
2022-12-01T12:38:46.460Z,9.30
2022-12-01T12:41:29.893Z,9.40
2022-12-01T12:44:20.151Z,12.60
2022-12-01T12:47:00.560Z,12.00
2022-12-01T12:49:55.907Z,10.00
2022-12-01T12:52:29.791Z,12.10
2022-12-01T12:55:03.437Z,11.00
2022-12-01T12:57:44.156Z,11.20
2022-12-01T13:00:36.933Z,15.10
2022-12-01T13:03:13.516Z,12.00
2022-12-01T13:06:08.312Z,9.20
2022-12-01T13:08:50.366Z,10.40
2022-12-01T13:11:31.271Z,9.40
2022-12-01T13:14:24.834Z,11.40
2022-12-01T13:16:58.441Z,11.50
2022-12-01T13:19:34.806Z,17.20
2022-12-01T13:22:07.346Z,14.80
2022-12-01T13:24:36.295Z,13.60
2022-12-01T13:27:13.680Z,11.90
2022-12-01T13:29:50.970Z,10.90
2022-12-01T13:32:30.881Z,10.60
2022-12-01T13:35:02.089Z,13.80
2022-12-01T13:37:34.035Z,11.00
2022-12-01T13:40:20.172Z,9.50
2022-12-01T13:43:08.562Z,9.70
2022-12-01T13:45:40.690Z,9.90
2022-12-01T13:48:32.564Z,8.60
2022-12-01T13:51:03.046Z,11.00
2022-12-01T13:53:36.990Z,8.70
2022-12-01T13:56:17.706Z,9.10
2022-12-01T13:58:50.136Z,10.20
2022-12-01T14:01:21.929Z,9.70
2022-12-01T14:04:01.736Z,7.20
2022-12-01T14:06:39.202Z,13.70
2022-12-01T14:09:18.073Z,12.80
2022-12-01T14:12:15.042Z,10.10
2022-12-01T14:14:54.161Z,10.70
2022-12-01T14:17:31.966Z,12.80
2022-12-01T14:20:21.857Z,12.70
2022-12-01T14:23:15.165Z,8.10
2022-12-01T14:25:58.748Z,10.30
2022-12-01T14:28:55.715Z,9.10
2022-12-01T14:31:25.729Z,8.90
2022-12-01T14:34:12.136Z,8.40
2022-12-01T14:37:06.461Z,7.80
2022-12-01T14:39:42.203Z,15.30
2022-12-01T14:42:10.709Z,10.60
2022-12-01T14:44:47.853Z,11.00
2022-12-01T14:47:29.800Z,10.40
2022-12-01T14:50:10.061Z,13.90
2022-12-01T14:52:42.722Z,13.80
2022-12-01T14:55:18.274Z,11.30
2022-12-01T14:57:51.020Z,11.90
2022-12-01T15:00:22.920Z,11.30
2022-12-01T15:02:57.430Z,16.50
2022-12-01T15:05:28.301Z,12.50
2022-12-01T15:08:18.557Z,13.30
2022-12-01T15:10:59.572Z,16.30
2022-12-01T15:13:33.340Z,16.10
2022-12-01T15:16:05.186Z,15.30
2022-12-01T15:18:39.624Z,18.60
2022-12-01T15:21:19.737Z,19.00
2022-12-01T15:24:21.011Z,17.70
2022-12-01T15:26:52.772Z,17.20
2022-12-01T15:29:28.456Z,15.20
2022-12-01T15:32:02.792Z,19.50
2022-12-01T15:34:42.579Z,19.30
2022-12-01T15:37:15.381Z,17.80
2022-12-01T15:39:51.416Z,17.40
2022-12-01T15:42:25.043Z,18.40
2022-12-01T15:45:21.164Z,17.80
2022-12-01T15:47:52.012Z,18.40
2022-12-01T15:50:44.704Z,20.80
2022-12-01T15:53:26.125Z,16.80
2022-12-01T15:55:59.119Z,23.00
2022-12-01T15:58:31.346Z,17.80
2022-12-01T16:01:09.227Z,16.00
2022-12-01T16:03:56.460Z,19.40
2022-12-01T16:06:34.917Z,21.80
2022-12-01T16:09:07.634Z,18.50
2022-12-01T16:11:36.009Z,17.70
2022-12-01T16:14:20.716Z,20.00
2022-12-01T16:16:51.623Z,19.90
2022-12-01T16:19:27.088Z,17.60
2022-12-01T16:22:10.967Z,22.90
2022-12-01T16:24:54.719Z,18.70
2022-12-01T16:27:27.088Z,17.00
2022-12-01T16:29:57.398Z,17.80
2022-12-01T16:32:35.166Z,23.50
2022-12-01T16:35:04.471Z,20.40
2022-12-01T16:37:32.692Z,22.20
2022-12-01T16:40:01.208Z,21.90
2022-12-01T16:42:30.154Z,26.60
2022-12-01T16:44:58.462Z,27.20
2022-12-01T16:47:32.301Z,25.00
2022-12-01T16:50:00.691Z,24.70
2022-12-01T16:52:45.346Z,22.50
2022-12-01T16:55:38.561Z,25.10
2022-12-01T16:58:06.893Z,23.60
2022-12-01T17:00:36.103Z,28.70
2022-12-01T17:03:06.422Z,29.10
2022-12-01T17:05:34.846Z,28.90
2022-12-01T17:08:04.848Z,36.00
2022-12-01T17:10:34.108Z,27.80
2022-12-01T17:13:02.263Z,29.00
2022-12-01T17:15:32.343Z,27.70
2022-12-01T17:18:00.843Z,25.70
2022-12-01T17:20:29.094Z,24.00
2022-12-01T17:22:57.628Z,28.80
2022-12-01T17:25:25.993Z,29.30
2022-12-01T17:27:54.497Z,27.30
2022-12-01T17:30:24.204Z,36.50
2022-12-01T17:32:52.566Z,23.70
2022-12-01T17:35:20.769Z,29.10
2022-12-01T17:37:49.577Z,25.40
2022-12-01T17:40:18.135Z,21.30
2022-12-01T17:42:50.447Z,22.10
2022-12-01T17:45:19.814Z,27.40
2022-12-01T17:47:48.123Z,25.50
2022-12-01T17:50:16.809Z,26.70
2022-12-01T17:52:47.017Z,27.20
2022-12-01T17:55:15.302Z,26.50
2022-12-01T17:57:46.407Z,28.90
2022-12-01T18:00:15.524Z,28.80
2022-12-01T18:02:43.904Z,29.20
2022-12-01T18:05:12.525Z,29.20
2022-12-01T18:07:41.579Z,27.20
2022-12-01T18:10:10.193Z,24.80
2022-12-01T18:12:38.491Z,31.50
2022-12-01T18:15:07.713Z,26.30
2022-12-01T18:17:35.991Z,26.90
2022-12-01T18:20:05.994Z,27.40
2022-12-01T18:22:34.849Z,28.40
2022-12-01T18:25:03.399Z,28.80
2022-12-01T18:27:31.890Z,30.40
2022-12-01T18:30:00.589Z,31.10
2022-12-01T18:32:29.394Z,31.60
2022-12-01T18:34:58.100Z,30.70
2022-12-01T18:37:27.120Z,31.10
2022-12-01T18:39:56.296Z,33.50
2022-12-01T18:42:24.810Z,33.30
2022-12-01T18:44:53.290Z,31.90
2022-12-01T18:47:21.550Z,36.00
2022-12-01T18:49:50.238Z,37.40
2022-12-01T18:52:18.536Z,38.60
2022-12-01T18:54:46.782Z,41.40
2022-12-01T18:57:15.493Z,40.10
2022-12-01T18:59:43.944Z,39.20
2022-12-01T19:02:12.312Z,41.40
2022-12-01T19:04:41.678Z,43.60
2022-12-01T19:07:10.610Z,42.90
2022-12-01T19:09:38.908Z,42.80
2022-12-01T19:12:08.202Z,46.50
2022-12-01T19:14:36.980Z,48.70
2022-12-01T19:17:05.406Z,49.80
2022-12-01T19:19:37.347Z,44.90
2022-12-01T19:22:06.402Z,52.20
2022-12-01T19:24:35.043Z,50.10
2022-12-01T19:27:04.408Z,50.40
2022-12-01T19:29:32.759Z,47.90
2022-12-01T19:32:02.526Z,46.00
2022-12-01T19:34:30.836Z,48.80
2022-12-01T19:36:59.674Z,46.10
2022-12-01T19:39:28.459Z,40.70
2022-12-01T19:41:57.465Z,40.60
2022-12-01T19:44:26.059Z,40.10
2022-12-01T19:46:55.252Z,41.20
2022-12-01T19:49:23.512Z,43.00
2022-12-01T19:51:52.084Z,35.50
2022-12-01T19:54:21.780Z,36.40
2022-12-01T19:56:50.380Z,33.70
2022-12-01T19:59:18.971Z,38.40
2022-12-01T20:01:47.547Z,34.80
2022-12-01T20:04:16.137Z,33.10
2022-12-01T20:06:45.930Z,35.60
2022-12-01T20:09:14.435Z,31.20
2022-12-01T20:11:42.671Z,31.90
2022-12-01T20:14:12.094Z,24.80
2022-12-01T20:16:40.597Z,27.50
2022-12-01T20:19:08.839Z,28.20
2022-12-01T20:21:42.529Z,25.40
2022-12-01T20:24:16.401Z,25.80
2022-12-01T20:26:50.686Z,25.80
2022-12-01T20:29:22.741Z,24.00
2022-12-01T20:31:53.315Z,28.30
2022-12-01T20:34:28.910Z,28.70
2022-12-01T20:36:58.112Z,22.10
2022-12-01T20:39:27.225Z,26.90
2022-12-01T20:41:55.471Z,25.30
2022-12-01T20:44:24.018Z,23.50
2022-12-01T20:46:53.393Z,24.90
2022-12-01T20:49:21.553Z,26.80
2022-12-01T20:51:50.584Z,25.40
2022-12-01T20:54:30.265Z,23.80
2022-12-01T20:56:59.572Z,24.10
2022-12-01T20:59:28.994Z,23.90
2022-12-01T21:01:57.337Z,24.20
2022-12-01T21:04:26.277Z,25.60
2022-12-01T21:06:56.333Z,23.40
2022-12-01T21:09:25.975Z,25.40
2022-12-01T21:12:16.178Z,30.40
2022-12-01T21:14:49.014Z,30.40
2022-12-01T21:17:38.861Z,28.30
2022-12-01T21:20:21.690Z,23.20
2022-12-01T21:22:51.999Z,26.80
2022-12-01T21:25:24.513Z,29.90
2022-12-01T21:28:00.213Z,23.60
2022-12-01T21:30:30.016Z,25.50
2022-12-01T21:33:30.836Z,27.00
2022-12-01T21:36:01.139Z,26.70
2022-12-01T21:38:32.210Z,23.70
2022-12-01T21:41:00.716Z,24.60
2022-12-01T21:43:32.669Z,26.30
2022-12-01T21:46:14.009Z,27.30
2022-12-01T21:48:44.097Z,26.40
2022-12-01T21:51:24.531Z,22.50
2022-12-01T21:53:56.052Z,23.40
2022-12-01T21:56:29.405Z,23.50
2022-12-01T21:59:02.512Z,23.60
2022-12-01T22:01:32.833Z,22.10
2022-12-01T22:04:11.032Z,19.10
2022-12-01T22:06:51.657Z,19.40
2022-12-01T22:09:27.645Z,23.00
2022-12-01T22:12:00.193Z,19.60
2022-12-01T22:17:07.115Z,24.00
2022-12-01T22:19:40.169Z,20.00
2022-12-01T22:22:24.002Z,18.90
2022-12-01T22:24:56.671Z,20.80
2022-12-01T22:27:39.287Z,21.60
2022-12-01T22:30:07.465Z,19.50
2022-12-01T22:33:00.729Z,21.00
2022-12-01T22:35:34.448Z,21.00
2022-12-01T22:38:09.058Z,21.90
2022-12-01T22:40:48.039Z,19.70
2022-12-01T22:43:16.531Z,23.60
2022-12-01T22:46:02.219Z,19.60
2022-12-01T22:48:36.119Z,21.50
2022-12-01T22:51:24.477Z,21.10
2022-12-01T22:54:17.369Z,22.50
2022-12-01T22:56:48.705Z,21.90
2022-12-01T22:59:22.926Z,23.00
2022-12-01T23:01:57.072Z,22.00
2022-12-01T23:04:40.127Z,23.90
2022-12-01T23:07:31.268Z,23.70
2022-12-01T23:10:20.364Z,24.40
2022-12-01T23:12:52.401Z,23.50
2022-12-01T23:15:32.596Z,21.90
2022-12-01T23:18:20.797Z,25.90
2022-12-01T23:20:52.345Z,20.00
2022-12-01T23:23:25.773Z,20.60
2022-12-01T23:25:55.047Z,22.40
2022-12-01T23:28:24.870Z,21.60
2022-12-01T23:30:55.703Z,23.70
2022-12-01T23:33:29.172Z,24.80
2022-12-01T23:36:10.988Z,25.90
2022-12-01T23:38:42.295Z,26.50
2022-12-01T23:41:25.615Z,23.30
2022-12-01T23:43:55.966Z,24.30
2022-12-01T23:46:27.803Z,27.30
2022-12-01T23:49:12.808Z,22.80
2022-12-01T23:51:48.026Z,28.80
2022-12-01T23:54:18.442Z,26.30
2022-12-01T23:57:17.980Z,27.80
2022-12-01T23:59:46.690Z,21.80
